Terminal Aerodrome Forecast
Issued by NWS Duluth, MN

Home | Current Version | Previous Version | Text Only | Print | Product List | Glossary On
Versions: 1 2 3 4 5 6 7 8 9 10 11 12 13 14 15 16 17 18 19 20 21 22 23 24 25 26 27
719
FTUS43 KDLH 081059 AAB
TAFINL
TAF AMD
KINL 081059Z 0811/0906 33009KT 3SM -SN BR OVC025
      TEMPO 0811/0814 1SM -SN BR OVC025
     FM081400 33010KT P6SM VCSH OVC020
     FM082200 33008KT P6SM OVC014=

USA.gov is the U.S. government's official web portal to all federal, state and local government web resources and services.